sensor_id;sensor_type;location;lat;lon;timestamp;P1;durP1;ratioP1;P2;durP2;ratioP2
13764;SDS011;6953;48.810;9.204;2023-03-14T00:00:05;0.47;;;0.47;;
13764;SDS011;6953;48.810;9.204;2023-03-14T00:02:33;0.50;;;0.50;;
13764;SDS011;6953;48.810;9.204;2023-03-14T00:04:58;0.40;;;0.40;;
13764;SDS011;6953;48.810;9.204;2023-03-14T00:07:24;0.43;;;0.43;;
13764;SDS011;6953;48.810;9.204;2023-03-14T00:09:49;0.50;;;0.50;;
13764;SDS011;6953;48.810;9.204;2023-03-14T00:12:15;0.60;;;0.60;;
13764;SDS011;6953;48.810;9.204;2023-03-14T00:14:41;0.50;;;0.50;;
13764;SDS011;6953;48.810;9.204;2023-03-14T00:17:07;0.30;;;0.30;;
13764;SDS011;6953;48.810;9.204;2023-03-14T00:19:33;0.47;;;0.47;;
13764;SDS011;6953;48.810;9.204;2023-03-14T00:21:58;0.60;;;0.60;;
13764;SDS011;6953;48.810;9.204;2023-03-14T00:24:23;0.43;;;0.43;;
13764;SDS011;6953;48.810;9.204;2023-03-14T00:26:49;0.40;;;0.40;;
13764;SDS011;6953;48.810;9.204;2023-03-14T00:29:14;0.40;;;0.40;;
13764;SDS011;6953;48.810;9.204;2023-03-14T00:31:39;0.47;;;0.47;;
13764;SDS011;6953;48.810;9.204;2023-03-14T00:34:05;0.50;;;0.50;;
13764;SDS011;6953;48.810;9.204;2023-03-14T00:36:31;0.50;;;0.50;;
13764;SDS011;6953;48.810;9.204;2023-03-14T00:38:56;0.50;;;0.50;;
13764;SDS011;6953;48.810;9.204;2023-03-14T00:41:22;0.50;;;0.50;;
13764;SDS011;6953;48.810;9.204;2023-03-14T00:43:48;0.52;;;0.52;;
13764;SDS011;6953;48.810;9.204;2023-03-14T00:46:13;0.60;;;0.60;;
13764;SDS011;6953;48.810;9.204;2023-03-14T00:48:39;0.50;;;0.50;;
13764;SDS011;6953;48.810;9.204;2023-03-14T00:51:05;0.43;;;0.43;;
13764;SDS011;6953;48.810;9.204;2023-03-14T00:53:35;0.40;;;0.40;;
13764;SDS011;6953;48.810;9.204;2023-03-14T00:56:02;0.52;;;0.52;;
13764;SDS011;6953;48.810;9.204;2023-03-14T00:58:32;0.50;;;0.50;;
13764;SDS011;6953;48.810;9.204;2023-03-14T01:00:57;0.40;;;0.40;;
13764;SDS011;6953;48.810;9.204;2023-03-14T01:03:23;0.50;;;0.50;;
13764;SDS011;6953;48.810;9.204;2023-03-14T01:05:49;0.50;;;0.50;;
13764;SDS011;6953;48.810;9.204;2023-03-14T01:08:15;0.47;;;0.47;;
13764;SDS011;6953;48.810;9.204;2023-03-14T01:10:40;0.47;;;0.47;;
13764;SDS011;6953;48.810;9.204;2023-03-14T01:13:07;0.40;;;0.40;;
13764;SDS011;6953;48.810;9.204;2023-03-14T01:15:34;0.40;;;0.40;;
13764;SDS011;6953;48.810;9.204;2023-03-14T01:18:00;0.50;;;0.50;;
13764;SDS011;6953;48.810;9.204;2023-03-14T01:20:25;0.60;;;0.60;;
13764;SDS011;6953;48.810;9.204;2023-03-14T01:22:51;0.50;;;0.50;;
13764;SDS011;6953;48.810;9.204;2023-03-14T01:25:16;0.40;;;0.40;;
13764;SDS011;6953;48.810;9.204;2023-03-14T01:27:42;0.50;;;0.50;;
13764;SDS011;6953;48.810;9.204;2023-03-14T01:30:09;0.50;;;0.50;;
13764;SDS011;6953;48.810;9.204;2023-03-14T01:32:35;0.50;;;0.50;;
13764;SDS011;6953;48.810;9.204;2023-03-14T01:35:01;0.50;;;0.50;;
13764;SDS011;6953;48.810;9.204;2023-03-14T01:37:27;0.40;;;0.40;;
13764;SDS011;6953;48.810;9.204;2023-03-14T01:39:52;0.43;;;0.43;;
13764;SDS011;6953;48.810;9.204;2023-03-14T01:42:18;0.50;;;0.50;;
13764;SDS011;6953;48.810;9.204;2023-03-14T01:45:01;0.50;;;0.50;;
13764;SDS011;6953;48.810;9.204;2023-03-14T01:47:27;0.47;;;0.47;;
13764;SDS011;6953;48.810;9.204;2023-03-14T01:54:53;0.50;;;0.50;;
13764;SDS011;6953;48.810;9.204;2023-03-14T01:57:25;0.43;;;0.43;;
13764;SDS011;6953;48.810;9.204;2023-03-14T01:59:59;0.52;;;0.52;;
13764;SDS011;6953;48.810;9.204;2023-03-14T02:02:30;0.38;;;0.38;;
13764;SDS011;6953;48.810;9.204;2023-03-14T02:04:56;0.47;;;0.47;;
13764;SDS011;6953;48.810;9.204;2023-03-14T02:07:29;0.60;;;0.60;;
13764;SDS011;6953;48.810;9.204;2023-03-14T02:10:00;0.52;;;0.52;;
13764;SDS011;6953;48.810;9.204;2023-03-14T02:12:27;0.45;;;0.45;;
13764;SDS011;6953;48.810;9.204;2023-03-14T02:14:53;0.50;;;0.50;;
13764;SDS011;6953;48.810;9.204;2023-03-14T02:17:19;0.50;;;0.50;;
13764;SDS011;6953;48.810;9.204;2023-03-14T02:22:44;0.57;;;0.57;;
13764;SDS011;6953;48.810;9.204;2023-03-14T02:27:57;0.50;;;0.50;;
13764;SDS011;6953;48.810;9.204;2023-03-14T02:30:24;0.50;;;0.50;;
13764;SDS011;6953;48.810;9.204;2023-03-14T02:32:53;0.50;;;0.50;;
13764;SDS011;6953;48.810;9.204;2023-03-14T02:35:22;0.40;;;0.40;;
13764;SDS011;6953;48.810;9.204;2023-03-14T02:38:04;0.40;;;0.40;;
13764;SDS011;6953;48.810;9.204;2023-03-14T02:40:32;0.40;;;0.40;;
13764;SDS011;6953;48.810;9.204;2023-03-14T02:42:57;0.40;;;0.40;;
13764;SDS011;6953;48.810;9.204;2023-03-14T02:47:58;0.47;;;0.47;;
13764;SDS011;6953;48.810;9.204;2023-03-14T02:50:28;0.43;;;0.43;;
13764;SDS011;6953;48.810;9.204;2023-03-14T02:52:58;0.50;;;0.50;;
13764;SDS011;6953;48.810;9.204;2023-03-14T02:55:23;0.57;;;0.57;;
13764;SDS011;6953;48.810;9.204;2023-03-14T02:57:51;0.50;;;0.50;;
13764;SDS011;6953;48.810;9.204;2023-03-14T03:00:17;0.50;;;0.50;;
13764;SDS011;6953;48.810;9.204;2023-03-14T03:02:43;0.50;;;0.50;;
13764;SDS011;6953;48.810;9.204;2023-03-14T03:05:08;0.50;;;0.50;;
13764;SDS011;6953;48.810;9.204;2023-03-14T03:07:33;0.50;;;0.50;;
13764;SDS011;6953;48.810;9.204;2023-03-14T03:09:59;0.45;;;0.45;;
13764;SDS011;6953;48.810;9.204;2023-03-14T03:12:24;0.50;;;0.50;;
13764;SDS011;6953;48.810;9.204;2023-03-14T03:14:50;0.50;;;0.50;;
13764;SDS011;6953;48.810;9.204;2023-03-14T03:17:15;0.47;;;0.47;;
13764;SDS011;6953;48.810;9.204;2023-03-14T03:19:40;0.47;;;0.47;;
13764;SDS011;6953;48.810;9.204;2023-03-14T03:22:06;0.40;;;0.40;;
13764;SDS011;6953;48.810;9.204;2023-03-14T03:24:31;0.57;;;0.57;;
13764;SDS011;6953;48.810;9.204;2023-03-14T03:26:57;0.40;;;0.40;;
13764;SDS011;6953;48.810;9.204;2023-03-14T03:29:22;0.50;;;0.50;;
13764;SDS011;6953;48.810;9.204;2023-03-14T03:31:48;0.50;;;0.50;;
13764;SDS011;6953;48.810;9.204;2023-03-14T03:34:13;0.43;;;0.43;;
13764;SDS011;6953;48.810;9.204;2023-03-14T03:36:39;0.55;;;0.55;;
13764;SDS011;6953;48.810;9.204;2023-03-14T03:39:05;0.60;;;0.60;;
13764;SDS011;6953;48.810;9.204;2023-03-14T03:41:30;0.50;;;0.50;;
13764;SDS011;6953;48.810;9.204;2023-03-14T03:43:56;0.50;;;0.50;;
13764;SDS011;6953;48.810;9.204;2023-03-14T03:46:21;0.50;;;0.50;;
13764;SDS011;6953;48.810;9.204;2023-03-14T03:48:47;0.40;;;0.40;;
13764;SDS011;6953;48.810;9.204;2023-03-14T03:51:13;0.50;;;0.50;;
13764;SDS011;6953;48.810;9.204;2023-03-14T03:53:40;0.40;;;0.40;;
13764;SDS011;6953;48.810;9.204;2023-03-14T03:56:06;0.50;;;0.50;;
13764;SDS011;6953;48.810;9.204;2023-03-14T03:58:32;0.60;;;0.60;;
13764;SDS011;6953;48.810;9.204;2023-03-14T04:00:58;0.50;;;0.50;;
13764;SDS011;6953;48.810;9.204;2023-03-14T04:03:23;0.60;;;0.60;;
13764;SDS011;6953;48.810;9.204;2023-03-14T04:05:58;0.60;;;0.60;;
13764;SDS011;6953;48.810;9.204;2023-03-14T04:08:25;0.60;;;0.60;;
13764;SDS011;6953;48.810;9.204;2023-03-14T04:10:53;0.55;;;0.55;;
13764;SDS011;6953;48.810;9.204;2023-03-14T04:13:20;0.40;;;0.40;;
13764;SDS011;6953;48.810;9.204;2023-03-14T04:15:45;0.60;;;0.60;;
13764;SDS011;6953;48.810;9.204;2023-03-14T04:18:10;0.50;;;0.50;;
13764;SDS011;6953;48.810;9.204;2023-03-14T04:20:36;0.60;;;0.60;;
13764;SDS011;6953;48.810;9.204;2023-03-14T04:23:01;0.50;;;0.50;;
13764;SDS011;6953;48.810;9.204;2023-03-14T04:25:26;0.60;;;0.60;;
13764;SDS011;6953;48.810;9.204;2023-03-14T04:27:52;0.57;;;0.57;;
13764;SDS011;6953;48.810;9.204;2023-03-14T04:30:17;0.43;;;0.43;;
13764;SDS011;6953;48.810;9.204;2023-03-14T04:32:42;0.50;;;0.50;;
13764;SDS011;6953;48.810;9.204;2023-03-14T04:35:08;0.50;;;0.50;;
13764;SDS011;6953;48.810;9.204;2023-03-14T04:37:33;0.50;;;0.50;;
13764;SDS011;6953;48.810;9.204;2023-03-14T04:39:58;0.50;;;0.50;;
13764;SDS011;6953;48.810;9.204;2023-03-14T04:42:25;0.50;;;0.50;;
13764;SDS011;6953;48.810;9.204;2023-03-14T04:44:51;0.60;;;0.60;;
13764;SDS011;6953;48.810;9.204;2023-03-14T04:47:16;0.43;;;0.43;;
13764;SDS011;6953;48.810;9.204;2023-03-14T04:49:42;0.57;;;0.57;;
13764;SDS011;6953;48.810;9.204;2023-03-14T04:52:07;0.50;;;0.50;;
13764;SDS011;6953;48.810;9.204;2023-03-14T04:54:32;0.57;;;0.57;;
13764;SDS011;6953;48.810;9.204;2023-03-14T04:56:58;0.43;;;0.43;;
13764;SDS011;6953;48.810;9.204;2023-03-14T04:59:23;0.45;;;0.45;;
13764;SDS011;6953;48.810;9.204;2023-03-14T05:01:49;0.60;;;0.60;;
13764;SDS011;6953;48.810;9.204;2023-03-14T05:04:14;0.60;;;0.60;;
13764;SDS011;6953;48.810;9.204;2023-03-14T05:06:40;0.50;;;0.50;;
13764;SDS011;6953;48.810;9.204;2023-03-14T05:09:07;0.57;;;0.57;;
13764;SDS011;6953;48.810;9.204;2023-03-14T05:11:32;0.50;;;0.50;;
13764;SDS011;6953;48.810;9.204;2023-03-14T05:13:58;0.60;;;0.60;;
13764;SDS011;6953;48.810;9.204;2023-03-14T05:16:23;0.55;;;0.55;;
13764;SDS011;6953;48.810;9.204;2023-03-14T05:18:48;0.52;;;0.52;;
13764;SDS011;6953;48.810;9.204;2023-03-14T05:21:14;0.50;;;0.50;;
13764;SDS011;6953;48.810;9.204;2023-03-14T05:23:39;0.60;;;0.60;;
13764;SDS011;6953;48.810;9.204;2023-03-14T05:26:04;0.50;;;0.50;;
13764;SDS011;6953;48.810;9.204;2023-03-14T05:28:30;0.50;;;0.50;;
13764;SDS011;6953;48.810;9.204;2023-03-14T05:30:55;0.50;;;0.50;;
13764;SDS011;6953;48.810;9.204;2023-03-14T05:33:21;0.50;;;0.50;;
13764;SDS011;6953;48.810;9.204;2023-03-14T05:35:46;0.50;;;0.50;;
13764;SDS011;6953;48.810;9.204;2023-03-14T05:38:11;0.50;;;0.50;;
13764;SDS011;6953;48.810;9.204;2023-03-14T05:40:37;0.47;;;0.47;;
13764;SDS011;6953;48.810;9.204;2023-03-14T05:43:02;0.43;;;0.43;;
13764;SDS011;6953;48.810;9.204;2023-03-14T05:45:27;0.50;;;0.50;;
13764;SDS011;6953;48.810;9.204;2023-03-14T05:47:53;0.50;;;0.50;;
13764;SDS011;6953;48.810;9.204;2023-03-14T05:50:18;0.68;;;0.68;;
13764;SDS011;6953;48.810;9.204;2023-03-14T05:52:44;0.50;;;0.50;;
13764;SDS011;6953;48.810;9.204;2023-03-14T05:55:09;0.40;;;0.40;;
13764;SDS011;6953;48.810;9.204;2023-03-14T05:57:34;0.60;;;0.60;;
13764;SDS011;6953;48.810;9.204;2023-03-14T06:00:01;0.60;;;0.60;;
13764;SDS011;6953;48.810;9.204;2023-03-14T06:02:26;0.60;;;0.60;;
13764;SDS011;6953;48.810;9.204;2023-03-14T06:04:52;0.50;;;0.50;;
13764;SDS011;6953;48.810;9.204;2023-03-14T06:07:17;0.55;;;0.55;;
13764;SDS011;6953;48.810;9.204;2023-03-14T06:09:43;0.50;;;0.50;;
13764;SDS011;6953;48.810;9.204;2023-03-14T06:12:08;0.60;;;0.60;;
13764;SDS011;6953;48.810;9.204;2023-03-14T06:14:33;0.60;;;0.60;;
13764;SDS011;6953;48.810;9.204;2023-03-14T06:16:59;0.50;;;0.50;;
13764;SDS011;6953;48.810;9.204;2023-03-14T06:19:24;0.50;;;0.50;;
13764;SDS011;6953;48.810;9.204;2023-03-14T06:21:50;0.60;;;0.60;;
13764;SDS011;6953;48.810;9.204;2023-03-14T06:24:16;0.50;;;0.50;;
13764;SDS011;6953;48.810;9.204;2023-03-14T06:26:42;0.43;;;0.43;;
13764;SDS011;6953;48.810;9.204;2023-03-14T06:29:08;0.43;;;0.43;;
13764;SDS011;6953;48.810;9.204;2023-03-14T06:31:33;0.40;;;0.40;;
13764;SDS011;6953;48.810;9.204;2023-03-14T06:33:59;0.50;;;0.50;;
13764;SDS011;6953;48.810;9.204;2023-03-14T06:36:24;0.50;;;0.50;;
13764;SDS011;6953;48.810;9.204;2023-03-14T06:38:50;0.50;;;0.50;;
13764;SDS011;6953;48.810;9.204;2023-03-14T06:41:15;0.50;;;0.50;;
13764;SDS011;6953;48.810;9.204;2023-03-14T06:43:41;0.43;;;0.43;;
13764;SDS011;6953;48.810;9.204;2023-03-14T06:46:06;0.50;;;0.50;;
13764;SDS011;6953;48.810;9.204;2023-03-14T06:48:32;0.50;;;0.50;;
13764;SDS011;6953;48.810;9.204;2023-03-14T06:50:57;0.60;;;0.60;;
13764;SDS011;6953;48.810;9.204;2023-03-14T06:53:22;0.50;;;0.50;;
13764;SDS011;6953;48.810;9.204;2023-03-14T06:55:48;0.40;;;0.40;;
13764;SDS011;6953;48.810;9.204;2023-03-14T06:58:13;0.50;;;0.50;;
13764;SDS011;6953;48.810;9.204;2023-03-14T07:00:39;0.50;;;0.50;;
13764;SDS011;6953;48.810;9.204;2023-03-14T07:03:04;0.60;;;0.60;;
13764;SDS011;6953;48.810;9.204;2023-03-14T07:05:29;0.50;;;0.50;;
13764;SDS011;6953;48.810;9.204;2023-03-14T07:07:55;0.60;;;0.60;;
13764;SDS011;6953;48.810;9.204;2023-03-14T07:10:21;0.60;;;0.60;;
13764;SDS011;6953;48.810;9.204;2023-03-14T07:12:46;0.50;;;0.50;;
13764;SDS011;6953;48.810;9.204;2023-03-14T07:15:11;0.47;;;0.47;;
13764;SDS011;6953;48.810;9.204;2023-03-14T07:17:37;0.30;;;0.30;;
13764;SDS011;6953;48.810;9.204;2023-03-14T07:20:02;0.50;;;0.50;;
13764;SDS011;6953;48.810;9.204;2023-03-14T07:22:32;0.50;;;0.50;;
13764;SDS011;6953;48.810;9.204;2023-03-14T07:24:57;0.45;;;0.45;;
13764;SDS011;6953;48.810;9.204;2023-03-14T07:27:22;0.50;;;0.50;;
13764;SDS011;6953;48.810;9.204;2023-03-14T07:29:48;0.40;;;0.40;;
13764;SDS011;6953;48.810;9.204;2023-03-14T07:32:13;0.40;;;0.40;;
13764;SDS011;6953;48.810;9.204;2023-03-14T07:34:40;0.28;;;0.28;;
13764;SDS011;6953;48.810;9.204;2023-03-14T07:37:06;0.20;;;0.20;;
13764;SDS011;6953;48.810;9.204;2023-03-14T07:39:32;0.20;;;0.20;;
13764;SDS011;6953;48.810;9.204;2023-03-14T07:41:57;0.20;;;0.20;;
13764;SDS011;6953;48.810;9.204;2023-03-14T07:44:22;0.20;;;0.20;;
13764;SDS011;6953;48.810;9.204;2023-03-14T07:46:48;0.20;;;0.20;;
13764;SDS011;6953;48.810;9.204;2023-03-14T07:49:13;0.10;;;0.10;;
13764;SDS011;6953;48.810;9.204;2023-03-14T07:51:38;0.20;;;0.20;;
13764;SDS011;6953;48.810;9.204;2023-03-14T07:54:04;0.20;;;0.20;;
13764;SDS011;6953;48.810;9.204;2023-03-14T07:56:29;0.10;;;0.10;;
13764;SDS011;6953;48.810;9.204;2023-03-14T07:58:54;0.20;;;0.20;;
13764;SDS011;6953;48.810;9.204;2023-03-14T08:01:20;0.20;;;0.20;;
13764;SDS011;6953;48.810;9.204;2023-03-14T08:03:45;0.20;;;0.20;;
13764;SDS011;6953;48.810;9.204;2023-03-14T08:06:11;0.20;;;0.20;;
13764;SDS011;6953;48.810;9.204;2023-03-14T08:08:36;0.20;;;0.20;;
13764;SDS011;6953;48.810;9.204;2023-03-14T08:11:02;0.10;;;0.10;;
13764;SDS011;6953;48.810;9.204;2023-03-14T08:13:29;0.20;;;0.20;;
13764;SDS011;6953;48.810;9.204;2023-03-14T08:15:54;0.20;;;0.20;;
13764;SDS011;6953;48.810;9.204;2023-03-14T08:18:20;0.20;;;0.20;;
13764;SDS011;6953;48.810;9.204;2023-03-14T08:20:45;0.20;;;0.20;;
13764;SDS011;6953;48.810;9.204;2023-03-14T08:23:10;0.20;;;0.20;;
13764;SDS011;6953;48.810;9.204;2023-03-14T08:25:37;0.10;;;0.10;;
13764;SDS011;6953;48.810;9.204;2023-03-14T08:28:03;0.13;;;0.13;;
13764;SDS011;6953;48.810;9.204;2023-03-14T08:30:29;0.10;;;0.10;;
13764;SDS011;6953;48.810;9.204;2023-03-14T08:32:56;0.10;;;0.10;;
13764;SDS011;6953;48.810;9.204;2023-03-14T08:35:22;0.10;;;0.10;;
13764;SDS011;6953;48.810;9.204;2023-03-14T08:37:47;0.10;;;0.10;;
13764;SDS011;6953;48.810;9.204;2023-03-14T08:40:13;0.10;;;0.10;;
13764;SDS011;6953;48.810;9.204;2023-03-14T08:42:39;0.10;;;0.10;;
13764;SDS011;6953;48.810;9.204;2023-03-14T08:45:05;0.10;;;0.10;;
13764;SDS011;6953;48.810;9.204;2023-03-14T08:47:32;0.10;;;0.10;;
13764;SDS011;6953;48.810;9.204;2023-03-14T08:49:57;0.20;;;0.20;;
13764;SDS011;6953;48.810;9.204;2023-03-14T08:52:23;0.20;;;0.20;;
13764;SDS011;6953;48.810;9.204;2023-03-14T08:54:48;0.20;;;0.20;;
13764;SDS011;6953;48.810;9.204;2023-03-14T08:57:13;0.20;;;0.20;;
13764;SDS011;6953;48.810;9.204;2023-03-14T08:59:39;0.20;;;0.20;;
13764;SDS011;6953;48.810;9.204;2023-03-14T09:02:04;0.10;;;0.10;;
13764;SDS011;6953;48.810;9.204;2023-03-14T09:04:30;0.10;;;0.10;;
13764;SDS011;6953;48.810;9.204;2023-03-14T09:06:56;0.10;;;0.10;;
13764;SDS011;6953;48.810;9.204;2023-03-14T09:09:23;0.10;;;0.10;;
13764;SDS011;6953;48.810;9.204;2023-03-14T09:11:49;0.17;;;0.17;;
13764;SDS011;6953;48.810;9.204;2023-03-14T09:14:14;0.10;;;0.10;;
13764;SDS011;6953;48.810;9.204;2023-03-14T09:16:40;0.20;;;0.20;;
13764;SDS011;6953;48.810;9.204;2023-03-14T09:19:05;0.20;;;0.20;;
13764;SDS011;6953;48.810;9.204;2023-03-14T09:21:30;0.20;;;0.20;;
13764;SDS011;6953;48.810;9.204;2023-03-14T09:23:56;0.20;;;0.20;;
13764;SDS011;6953;48.810;9.204;2023-03-14T09:26:21;0.20;;;0.20;;
13764;SDS011;6953;48.810;9.204;2023-03-14T09:28:47;0.20;;;0.20;;
13764;SDS011;6953;48.810;9.204;2023-03-14T09:31:12;0.10;;;0.10;;
13764;SDS011;6953;48.810;9.204;2023-03-14T09:33:38;0.15;;;0.15;;
13764;SDS011;6953;48.810;9.204;2023-03-14T09:36:04;0.17;;;0.17;;
13764;SDS011;6953;48.810;9.204;2023-03-14T09:38:30;0.20;;;0.20;;
13764;SDS011;6953;48.810;9.204;2023-03-14T09:40:58;0.10;;;0.10;;
13764;SDS011;6953;48.810;9.204;2023-03-14T09:43:25;0.20;;;0.20;;
13764;SDS011;6953;48.810;9.204;2023-03-14T09:45:54;0.10;;;0.10;;
13764;SDS011;6953;48.810;9.204;2023-03-14T09:48:22;0.10;;;0.10;;
13764;SDS011;6953;48.810;9.204;2023-03-14T09:50:53;0.20;;;0.20;;
13764;SDS011;6953;48.810;9.204;2023-03-14T09:53:21;0.20;;;0.20;;
13764;SDS011;6953;48.810;9.204;2023-03-14T09:55:50;0.20;;;0.20;;
13764;SDS011;6953;48.810;9.204;2023-03-14T09:58:21;0.20;;;0.20;;
13764;SDS011;6953;48.810;9.204;2023-03-14T10:00:52;0.10;;;0.10;;
13764;SDS011;6953;48.810;9.204;2023-03-14T10:05:59;0.10;;;0.10;;
13764;SDS011;6953;48.810;9.204;2023-03-14T10:08:24;0.10;;;0.10;;
13764;SDS011;6953;48.810;9.204;2023-03-14T10:10:50;0.20;;;0.20;;
13764;SDS011;6953;48.810;9.204;2023-03-14T10:13:17;0.10;;;0.10;;
13764;SDS011;6953;48.810;9.204;2023-03-14T10:15:54;0.10;;;0.10;;
13764;SDS011;6953;48.810;9.204;2023-03-14T10:18:23;0.10;;;0.10;;
13764;SDS011;6953;48.810;9.204;2023-03-14T10:20:49;0.10;;;0.10;;
13764;SDS011;6953;48.810;9.204;2023-03-14T10:23:27;0.10;;;0.10;;
13764;SDS011;6953;48.810;9.204;2023-03-14T10:25:59;0.10;;;0.10;;
13764;SDS011;6953;48.810;9.204;2023-03-14T10:28:29;0.10;;;0.10;;
13764;SDS011;6953;48.810;9.204;2023-03-14T10:30:57;0.10;;;0.10;;
13764;SDS011;6953;48.810;9.204;2023-03-14T10:36:03;0.10;;;0.10;;
13764;SDS011;6953;48.810;9.204;2023-03-14T10:38:32;0.20;;;0.20;;
13764;SDS011;6953;48.810;9.204;2023-03-14T10:41:00;0.10;;;0.10;;
13764;SDS011;6953;48.810;9.204;2023-03-14T10:43:35;0.10;;;0.10;;
13764;SDS011;6953;48.810;9.204;2023-03-14T10:46:12;0.20;;;0.20;;
13764;SDS011;6953;48.810;9.204;2023-03-14T10:48:42;0.20;;;0.20;;
13764;SDS011;6953;48.810;9.204;2023-03-14T10:53:43;0.20;;;0.20;;
13764;SDS011;6953;48.810;9.204;2023-03-14T10:56:20;0.20;;;0.20;;
13764;SDS011;6953;48.810;9.204;2023-03-14T10:58:47;0.20;;;0.20;;
13764;SDS011;6953;48.810;9.204;2023-03-14T11:03:40;0.20;;;0.20;;
13764;SDS011;6953;48.810;9.204;2023-03-14T11:11:52;0.30;;;0.30;;
13764;SDS011;6953;48.810;9.204;2023-03-14T11:14:25;0.30;;;0.30;;
13764;SDS011;6953;48.810;9.204;2023-03-14T11:17:12;0.32;;;0.32;;
13764;SDS011;6953;48.810;9.204;2023-03-14T11:22:23;0.30;;;0.30;;
13764;SDS011;6953;48.810;9.204;2023-03-14T11:28:09;0.40;;;0.40;;
13764;SDS011;6953;48.810;9.204;2023-03-14T11:30:39;0.30;;;0.30;;
13764;SDS011;6953;48.810;9.204;2023-03-14T11:36:25;0.40;;;0.40;;
13764;SDS011;6953;48.810;9.204;2023-03-14T11:39:03;0.40;;;0.40;;
13764;SDS011;6953;48.810;9.204;2023-03-14T11:41:40;0.50;;;0.50;;
13764;SDS011;6953;48.810;9.204;2023-03-14T11:44:19;0.50;;;0.50;;
13764;SDS011;6953;48.810;9.204;2023-03-14T11:46:55;0.50;;;0.50;;
13764;SDS011;6953;48.810;9.204;2023-03-14T11:49:35;0.50;;;0.50;;
13764;SDS011;6953;48.810;9.204;2023-03-14T11:52:50;0.47;;;0.47;;
13764;SDS011;6953;48.810;9.204;2023-03-14T11:57:25;0.40;;;0.40;;
13764;SDS011;6953;48.810;9.204;2023-03-14T12:05:28;0.50;;;0.50;;
13764;SDS011;6953;48.810;9.204;2023-03-14T12:11:09;0.50;;;0.50;;
13764;SDS011;6953;48.810;9.204;2023-03-14T12:13:28;0.50;;;0.50;;
13764;SDS011;6953;48.810;9.204;2023-03-14T12:15:58;0.50;;;0.50;;
13764;SDS011;6953;48.810;9.204;2023-03-14T12:18:26;0.38;;;0.38;;
13764;SDS011;6953;48.810;9.204;2023-03-14T12:20:55;0.40;;;0.40;;
13764;SDS011;6953;48.810;9.204;2023-03-14T12:23:23;0.50;;;0.50;;
13764;SDS011;6953;48.810;9.204;2023-03-14T12:26:43;0.40;;;0.40;;
13764;SDS011;6953;48.810;9.204;2023-03-14T12:28:44;0.50;;;0.50;;
13764;SDS011;6953;48.810;9.204;2023-03-14T12:39:19;0.30;;;0.30;;
13764;SDS011;6953;48.810;9.204;2023-03-14T12:42:07;0.30;;;0.30;;
13764;SDS011;6953;48.810;9.204;2023-03-14T12:49:44;0.10;;;0.10;;
13764;SDS011;6953;48.810;9.204;2023-03-14T12:52:15;0.10;;;0.10;;
13764;SDS011;6953;48.810;9.204;2023-03-14T12:57:43;0.10;;;0.10;;
13764;SDS011;6953;48.810;9.204;2023-03-14T13:00:19;0.10;;;0.10;;
13764;SDS011;6953;48.810;9.204;2023-03-14T13:02:47;0.10;;;0.10;;
13764;SDS011;6953;48.810;9.204;2023-03-14T13:10:24;0.20;;;0.20;;
13764;SDS011;6953;48.810;9.204;2023-03-14T13:12:55;0.20;;;0.20;;
13764;SDS011;6953;48.810;9.204;2023-03-14T13:17:59;0.20;;;0.20;;
13764;SDS011;6953;48.810;9.204;2023-03-14T13:20:31;0.20;;;0.20;;
13764;SDS011;6953;48.810;9.204;2023-03-14T13:23:00;0.25;;;0.25;;
13764;SDS011;6953;48.810;9.204;2023-03-14T13:25:29;0.25;;;0.25;;
13764;SDS011;6953;48.810;9.204;2023-03-14T13:27:57;0.30;;;0.30;;
13764;SDS011;6953;48.810;9.204;2023-03-14T13:30:27;0.20;;;0.20;;
13764;SDS011;6953;48.810;9.204;2023-03-14T13:32:54;0.20;;;0.20;;
13764;SDS011;6953;48.810;9.204;2023-03-14T13:35:26;0.20;;;0.20;;
13764;SDS011;6953;48.810;9.204;2023-03-14T13:37:55;0.30;;;0.30;;
13764;SDS011;6953;48.810;9.204;2023-03-14T13:40:28;0.30;;;0.30;;
13764;SDS011;6953;48.810;9.204;2023-03-14T13:43:01;0.30;;;0.30;;
13764;SDS011;6953;48.810;9.204;2023-03-14T13:45:29;0.30;;;0.30;;
13764;SDS011;6953;48.810;9.204;2023-03-14T13:47:54;0.30;;;0.30;;
13764;SDS011;6953;48.810;9.204;2023-03-14T13:50:20;0.30;;;0.30;;
13764;SDS011;6953;48.810;9.204;2023-03-14T13:52:55;0.30;;;0.30;;
13764;SDS011;6953;48.810;9.204;2023-03-14T13:55:22;0.30;;;0.30;;
13764;SDS011;6953;48.810;9.204;2023-03-14T13:57:52;0.40;;;0.40;;
13764;SDS011;6953;48.810;9.204;2023-03-14T14:00:23;0.30;;;0.30;;
13764;SDS011;6953;48.810;9.204;2023-03-14T14:02:52;0.30;;;0.30;;
13764;SDS011;6953;48.810;9.204;2023-03-14T14:05:23;0.30;;;0.30;;
13764;SDS011;6953;48.810;9.204;2023-03-14T14:07:52;0.30;;;0.30;;
13764;SDS011;6953;48.810;9.204;2023-03-14T14:10:17;0.30;;;0.30;;
13764;SDS011;6953;48.810;9.204;2023-03-14T14:15:25;0.20;;;0.20;;
13764;SDS011;6953;48.810;9.204;2023-03-14T14:17:54;0.30;;;0.30;;
13764;SDS011;6953;48.810;9.204;2023-03-14T14:23:00;0.20;;;0.20;;
13764;SDS011;6953;48.810;9.204;2023-03-14T14:25:30;0.22;;;0.22;;
13764;SDS011;6953;48.810;9.204;2023-03-14T14:27:57;0.30;;;0.30;;
13764;SDS011;6953;48.810;9.204;2023-03-14T14:30:27;0.30;;;0.30;;
13764;SDS011;6953;48.810;9.204;2023-03-14T14:33:18;0.30;;;0.30;;
13764;SDS011;6953;48.810;9.204;2023-03-14T14:35:53;0.28;;;0.28;;
13764;SDS011;6953;48.810;9.204;2023-03-14T14:38:21;0.30;;;0.30;;
13764;SDS011;6953;48.810;9.204;2023-03-14T14:40:54;0.30;;;0.30;;
13764;SDS011;6953;48.810;9.204;2023-03-14T14:43:26;0.28;;;0.28;;
13764;SDS011;6953;48.810;9.204;2023-03-14T14:45:54;0.40;;;0.40;;
13764;SDS011;6953;48.810;9.204;2023-03-14T14:48:25;0.20;;;0.20;;
13764;SDS011;6953;48.810;9.204;2023-03-14T14:50:59;0.20;;;0.20;;
13764;SDS011;6953;48.810;9.204;2023-03-14T14:55:56;0.30;;;0.30;;
13764;SDS011;6953;48.810;9.204;2023-03-14T14:58:35;0.32;;;0.32;;
13764;SDS011;6953;48.810;9.204;2023-03-14T15:01:05;0.30;;;0.30;;
13764;SDS011;6953;48.810;9.204;2023-03-14T15:03:36;0.40;;;0.40;;
13764;SDS011;6953;48.810;9.204;2023-03-14T15:06:02;0.30;;;0.30;;
13764;SDS011;6953;48.810;9.204;2023-03-14T15:08:28;0.30;;;0.30;;
13764;SDS011;6953;48.810;9.204;2023-03-14T15:10:55;0.35;;;0.35;;
13764;SDS011;6953;48.810;9.204;2023-03-14T15:13:21;0.40;;;0.40;;
13764;SDS011;6953;48.810;9.204;2023-03-14T15:15:46;0.40;;;0.40;;
13764;SDS011;6953;48.810;9.204;2023-03-14T15:18:13;0.40;;;0.40;;
13764;SDS011;6953;48.810;9.204;2023-03-14T15:20:40;0.30;;;0.30;;
13764;SDS011;6953;48.810;9.204;2023-03-14T15:23:10;0.30;;;0.30;;
13764;SDS011;6953;48.810;9.204;2023-03-14T15:25:37;0.40;;;0.40;;
13764;SDS011;6953;48.810;9.204;2023-03-14T15:28:08;0.43;;;0.43;;
13764;SDS011;6953;48.810;9.204;2023-03-14T15:30:41;0.40;;;0.40;;
13764;SDS011;6953;48.810;9.204;2023-03-14T15:33:07;0.40;;;0.40;;
13764;SDS011;6953;48.810;9.204;2023-03-14T15:35:34;0.40;;;0.40;;
13764;SDS011;6953;48.810;9.204;2023-03-14T15:38:00;0.40;;;0.40;;
13764;SDS011;6953;48.810;9.204;2023-03-14T15:40:26;0.32;;;0.32;;
13764;SDS011;6953;48.810;9.204;2023-03-14T15:42:51;0.30;;;0.30;;
13764;SDS011;6953;48.810;9.204;2023-03-14T15:45:17;0.37;;;0.37;;
13764;SDS011;6953;48.810;9.204;2023-03-14T15:47:42;0.30;;;0.30;;
13764;SDS011;6953;48.810;9.204;2023-03-14T15:50:08;0.30;;;0.30;;
13764;SDS011;6953;48.810;9.204;2023-03-14T15:52:34;0.30;;;0.30;;
13764;SDS011;6953;48.810;9.204;2023-03-14T15:55:00;0.30;;;0.30;;
13764;SDS011;6953;48.810;9.204;2023-03-14T15:57:25;0.40;;;0.40;;
13764;SDS011;6953;48.810;9.204;2023-03-14T15:59:50;0.40;;;0.40;;
13764;SDS011;6953;48.810;9.204;2023-03-14T16:02:16;0.40;;;0.40;;
13764;SDS011;6953;48.810;9.204;2023-03-14T16:04:41;0.50;;;0.50;;
13764;SDS011;6953;48.810;9.204;2023-03-14T16:07:07;0.40;;;0.40;;
13764;SDS011;6953;48.810;9.204;2023-03-14T16:09:32;0.50;;;0.50;;
13764;SDS011;6953;48.810;9.204;2023-03-14T16:11:58;0.40;;;0.40;;
13764;SDS011;6953;48.810;9.204;2023-03-14T16:14:23;0.47;;;0.47;;
13764;SDS011;6953;48.810;9.204;2023-03-14T16:16:48;0.40;;;0.40;;
13764;SDS011;6953;48.810;9.204;2023-03-14T16:19:14;0.50;;;0.50;;
13764;SDS011;6953;48.810;9.204;2023-03-14T16:21:40;0.45;;;0.45;;